createdAt,value
2023-11-23T04:14:38.567Z,10.85
2023-11-23T04:17:05.984Z,10.85
2023-11-23T04:19:55.735Z,11.18
2023-11-23T04:22:22.952Z,10.95
2023-11-23T04:24:50.821Z,10.88
2023-11-23T04:27:20.050Z,10.65
2023-11-23T04:29:49.220Z,10.25
2023-11-23T04:32:23.954Z,10.93
2023-11-23T04:34:50.822Z,10.45
2023-11-23T04:37:19.003Z,11.63
2023-11-23T04:39:46.027Z,10.30
2023-11-23T04:42:13.763Z,11.88
2023-11-23T04:44:41.913Z,11.73
2023-11-23T04:47:11.208Z,10.90
2023-11-23T04:49:38.337Z,11.98
2023-11-23T04:52:06.855Z,12.23
2023-11-23T04:54:35.697Z,11.02
2023-11-23T04:57:02.802Z,11.73
2023-11-23T04:59:29.576Z,12.13
2023-11-23T05:01:57.097Z,11.23
2023-11-23T05:04:35.898Z,29.55
2023-11-23T05:07:02.840Z,12.02
2023-11-23T05:09:29.807Z,11.93
2023-11-23T05:11:59.852Z,12.13
2023-11-23T05:14:26.830Z,11.48
2023-11-23T05:16:53.947Z,12.18
2023-11-23T05:19:31.812Z,13.50
2023-11-23T05:22:06.732Z,11.73
2023-11-23T05:24:33.837Z,11.25
2023-11-23T05:27:00.992Z,11.77
2023-11-23T05:29:29.641Z,11.57
2023-11-23T05:31:58.019Z,11.25
2023-11-23T05:34:26.963Z,11.38
2023-11-23T05:36:56.067Z,12.23
2023-11-23T05:39:42.730Z,11.27
2023-11-23T05:42:18.989Z,12.20
2023-11-23T05:45:10.585Z,12.25
2023-11-23T05:47:38.466Z,11.25
2023-11-23T05:50:12.829Z,11.85
2023-11-23T05:52:41.074Z,10.95
2023-11-23T05:55:08.954Z,12.13
2023-11-23T05:57:40.845Z,11.63
2023-11-23T06:00:32.468Z,11.85
2023-11-23T06:02:59.611Z,11.18
2023-11-23T06:05:26.777Z,10.63
2023-11-23T06:07:54.004Z,11.65
2023-11-23T06:10:21.439Z,11.88
2023-11-23T06:12:48.462Z,10.65
2023-11-23T06:15:15.471Z,10.55
2023-11-23T06:17:42.503Z,11.27
2023-11-23T06:20:09.910Z,9.90
2023-11-23T06:22:36.866Z,10.32
2023-11-23T06:25:05.128Z,11.15
2023-11-23T06:27:33.417Z,11.05
2023-11-23T06:30:00.709Z,7.70
2023-11-23T06:32:27.921Z,10.88
2023-11-23T06:34:54.822Z,10.25
2023-11-23T06:37:21.871Z,10.85
2023-11-23T06:39:48.930Z,10.43
2023-11-23T06:42:15.856Z,11.00
2023-11-23T06:44:42.809Z,10.20
2023-11-23T06:47:09.662Z,10.70
2023-11-23T06:49:36.620Z,10.43
2023-11-23T06:52:03.817Z,11.90
2023-11-23T06:54:30.803Z,11.68
2023-11-23T06:56:58.550Z,12.10
2023-11-23T06:59:25.685Z,10.30
2023-11-23T07:01:52.660Z,10.65
2023-11-23T07:04:19.630Z,10.55
2023-11-23T07:06:46.597Z,10.57
2023-11-23T07:09:15.188Z,10.48
2023-11-23T07:11:42.284Z,9.73
2023-11-23T07:14:09.281Z,8.98
2023-11-23T07:17:13.988Z,9.80
2023-11-23T07:20:11.296Z,9.55
2023-11-23T07:22:48.329Z,7.45
2023-11-23T07:25:20.861Z,8.32
2023-11-23T07:27:57.504Z,10.07
2023-11-23T07:34:41.265Z,8.35
2023-11-23T07:37:16.223Z,8.10
2023-11-23T07:39:51.259Z,8.43
2023-11-23T07:42:23.159Z,7.82
2023-11-23T07:45:20.690Z,7.60
2023-11-23T07:47:58.045Z,8.00
2023-11-23T07:50:27.573Z,8.60
2023-11-23T07:52:58.685Z,8.55
2023-11-23T07:55:47.285Z,9.05
2023-11-23T07:58:19.412Z,7.78
2023-11-23T08:00:48.882Z,9.48
2023-11-23T08:03:16.192Z,10.00
2023-11-23T08:05:49.304Z,8.40
2023-11-23T08:08:19.608Z,9.23
2023-11-23T08:10:58.094Z,8.80
2023-11-23T08:13:30.956Z,9.35
2023-11-23T08:16:30.761Z,8.98
2023-11-23T08:19:49.770Z,8.93
2023-11-23T08:22:20.768Z,8.63
2023-11-23T08:24:52.321Z,8.93
2023-11-23T08:27:19.418Z,8.38
2023-11-23T08:29:47.444Z,8.98
2023-11-23T08:32:16.628Z,8.82
2023-11-23T08:34:45.018Z,8.18
2023-11-23T08:37:12.538Z,9.23
2023-11-23T08:39:41.351Z,8.52
2023-11-23T08:42:08.862Z,9.07
2023-11-23T08:44:36.368Z,8.38
2023-11-23T08:47:03.802Z,7.45
2023-11-23T08:49:32.534Z,8.68
2023-11-23T08:51:59.767Z,7.72
2023-11-23T08:54:26.836Z,8.95
2023-11-23T08:56:57.677Z,7.60
2023-11-23T08:59:24.748Z,8.00
2023-11-23T09:01:58.784Z,7.57
2023-11-23T09:04:40.070Z,7.85
2023-11-23T09:07:12.355Z,7.55
2023-11-23T09:09:42.019Z,8.07
2023-11-23T09:12:09.272Z,8.65
2023-11-23T09:14:46.502Z,7.55
2023-11-23T09:17:21.802Z,7.70
2023-11-23T09:19:48.943Z,6.33
2023-11-23T09:22:15.974Z,7.90
2023-11-23T09:24:44.087Z,7.70
2023-11-23T09:27:12.362Z,6.80
2023-11-23T09:29:39.533Z,7.07
2023-11-23T09:32:06.881Z,7.15
2023-11-23T09:34:36.367Z,6.38
2023-11-23T09:37:03.309Z,6.10
2023-11-23T09:39:30.424Z,6.13
2023-11-23T09:42:00.024Z,6.70
2023-11-23T09:44:27.558Z,5.25
2023-11-23T09:46:56.781Z,6.32
2023-11-23T09:49:25.065Z,6.05
2023-11-23T09:51:53.396Z,6.50
2023-11-23T09:54:24.777Z,5.70
2023-11-23T09:56:52.210Z,5.07
2023-11-23T09:59:19.092Z,6.60
2023-11-23T10:01:49.202Z,5.43
2023-11-23T10:04:17.160Z,6.50
2023-11-23T10:06:44.400Z,5.78
2023-11-23T10:09:16.336Z,7.18
2023-11-23T10:11:44.151Z,5.78
2023-11-23T10:14:13.168Z,5.00
2023-11-23T10:16:40.219Z,5.22
2023-11-23T10:19:07.675Z,5.63
2023-11-23T10:21:35.665Z,5.40
2023-11-23T10:24:09.206Z,5.78
2023-11-23T10:26:36.346Z,5.15
2023-11-23T10:29:03.765Z,5.82
2023-11-23T10:31:32.335Z,4.80
2023-11-23T10:34:00.558Z,5.07
2023-11-23T10:36:28.713Z,4.85
2023-11-23T10:39:01.172Z,5.60
2023-11-23T10:41:28.653Z,5.72
2023-11-23T10:43:59.005Z,5.20
2023-11-23T10:46:26.298Z,5.40
2023-11-23T10:48:54.613Z,4.60
2023-11-23T10:51:25.372Z,6.03
2023-11-23T10:53:52.417Z,5.45
2023-11-23T10:56:28.058Z,5.50
2023-11-23T10:58:59.808Z,5.97
2023-11-23T11:01:28.026Z,5.80
2023-11-23T11:03:55.556Z,5.45
2023-11-23T11:06:24.354Z,5.18
2023-11-23T11:08:51.667Z,5.60
2023-11-23T11:11:23.944Z,4.90
2023-11-23T11:14:17.851Z,5.27
2023-11-23T11:16:44.974Z,4.93
2023-11-23T11:19:15.170Z,5.95
2023-11-23T11:21:48.460Z,5.57
2023-11-23T11:26:51.186Z,5.88
2023-11-23T11:29:24.002Z,6.40
2023-11-23T11:31:51.092Z,5.68
2023-11-23T11:34:22.701Z,5.72
2023-11-23T11:37:03.473Z,5.15
2023-11-23T11:39:37.195Z,5.75
2023-11-23T11:42:08.694Z,5.38
2023-11-23T11:44:36.767Z,6.50
2023-11-23T11:47:09.375Z,5.28
2023-11-23T11:49:36.611Z,5.85
2023-11-23T11:52:03.898Z,5.22
2023-11-23T11:54:31.496Z,7.13
2023-11-23T11:56:58.513Z,5.50
2023-11-23T11:59:29.637Z,5.18
2023-11-23T12:01:58.025Z,5.07
2023-11-23T12:04:25.362Z,5.95
2023-11-23T12:06:53.974Z,5.93
2023-11-23T12:09:34.344Z,6.00
2023-11-23T12:12:11.931Z,6.07
2023-11-23T12:14:39.107Z,5.50
2023-11-23T12:17:14.093Z,5.53
2023-11-23T12:19:55.707Z,5.97
2023-11-23T12:22:28.454Z,5.80
2023-11-23T12:24:56.929Z,5.43
2023-11-23T12:27:26.448Z,5.38
2023-11-23T12:29:53.814Z,5.50
2023-11-23T12:32:20.622Z,6.18
2023-11-23T12:34:59.234Z,5.03
2023-11-23T12:37:26.592Z,6.40
2023-11-23T12:39:55.844Z,4.85
2023-11-23T12:42:24.078Z,5.10
2023-11-23T12:44:54.772Z,4.97
2023-11-23T12:47:22.615Z,5.25
2023-11-23T12:49:52.543Z,5.25
2023-11-23T12:52:29.405Z,6.88
2023-11-23T12:54:56.411Z,5.07
2023-11-23T12:57:23.449Z,6.43
2023-11-23T12:59:51.010Z,4.63
2023-11-23T13:02:20.811Z,5.28
2023-11-23T13:04:48.595Z,5.70
2023-11-23T13:07:15.804Z,5.43
2023-11-23T13:09:44.881Z,5.80
2023-11-23T13:12:15.195Z,5.10
2023-11-23T13:14:56.321Z,5.00
2023-11-23T13:17:28.292Z,4.70
2023-11-23T13:19:55.286Z,4.90
2023-11-23T13:22:24.343Z,4.40
2023-11-23T13:25:01.207Z,5.30
2023-11-23T13:28:30.021Z,4.93
2023-11-23T13:31:01.761Z,5.20
2023-11-23T13:33:39.907Z,4.75
2023-11-23T13:38:59.403Z,5.13
2023-11-23T13:39:24.600Z,5.35
2023-11-23T13:41:58.632Z,4.85
2023-11-23T13:44:43.238Z,4.85
2023-11-23T13:47:15.210Z,5.32
2023-11-23T13:49:59.367Z,4.57
2023-11-23T13:55:01.489Z,4.45
2023-11-23T13:57:28.497Z,4.40
2023-11-23T13:59:55.553Z,4.70
2023-11-23T14:02:26.620Z,4.72
2023-11-23T14:04:53.940Z,4.32
2023-11-23T14:07:20.823Z,5.07
2023-11-23T14:09:49.951Z,5.18
2023-11-23T14:12:19.976Z,5.10
2023-11-23T14:14:49.513Z,4.80
2023-11-23T14:17:35.790Z,4.68
2023-11-23T14:20:13.645Z,4.78
2023-11-23T14:22:48.231Z,4.53
2023-11-23T14:25:18.306Z,4.57
2023-11-23T14:30:38.862Z,4.22
2023-11-23T14:33:23.547Z,4.68
2023-11-23T14:35:54.634Z,4.15
2023-11-23T14:38:24.257Z,5.50
2023-11-23T14:40:52.431Z,4.55
2023-11-23T14:43:29.888Z,4.97
2023-11-23T14:46:00.925Z,4.75
2023-11-23T14:48:27.999Z,6.00
2023-11-23T14:51:04.402Z,4.95
2023-11-23T14:53:31.628Z,5.10
2023-11-23T14:56:02.758Z,4.68
2023-11-23T14:58:35.234Z,4.90
2023-11-23T15:01:02.325Z,4.70
2023-11-23T15:03:31.801Z,5.30
2023-11-23T15:06:00.630Z,5.10
2023-11-23T15:08:27.574Z,5.47
2023-11-23T15:10:57.166Z,5.38
2023-11-23T15:13:36.083Z,5.57
2023-11-23T15:16:07.473Z,5.13
2023-11-23T15:18:37.183Z,5.70
2023-11-23T15:21:08.100Z,6.75
2023-11-23T15:23:39.539Z,5.32
2023-11-23T15:26:10.006Z,5.53
2023-11-23T15:28:43.974Z,5.72
2023-11-23T15:31:11.820Z,6.38
2023-11-23T15:33:49.503Z,5.18
2023-11-23T15:36:23.685Z,5.20
2023-11-23T15:38:51.943Z,5.10
2023-11-23T15:41:19.373Z,5.35
2023-11-23T15:43:46.344Z,5.05
2023-11-23T15:46:13.447Z,5.50
2023-11-23T15:49:04.058Z,5.50
2023-11-23T15:52:08.693Z,5.30
2023-11-23T15:55:05.605Z,5.13
2023-11-23T15:58:32.028Z,4.50
2023-11-23T16:00:42.006Z,4.93
2023-11-23T16:03:15.974Z,4.95
2023-11-23T16:05:43.063Z,4.88
2023-11-23T16:08:26.702Z,5.75
2023-11-23T16:10:53.644Z,5.05
2023-11-23T16:13:23.349Z,3.90
2023-11-23T16:15:55.848Z,5.45
2023-11-23T16:18:22.910Z,5.75
2023-11-23T16:20:51.920Z,5.18
2023-11-23T16:23:18.974Z,5.15
2023-11-23T16:25:53.327Z,4.85
2023-11-23T16:28:21.276Z,5.22
2023-11-23T16:30:51.167Z,4.93
2023-11-23T16:33:30.384Z,5.23
2023-11-23T16:36:00.815Z,4.85
2023-11-23T16:45:36.131Z,4.80
2023-11-23T16:48:16.436Z,5.22
2023-11-23T16:50:47.399Z,5.47
2023-11-23T16:54:02.169Z,7.93
2023-11-23T16:56:36.018Z,6.00
2023-11-23T16:59:12.709Z,4.95
2023-11-23T17:01:42.870Z,4.90
2023-11-23T17:04:11.426Z,6.55
2023-11-23T17:06:43.846Z,4.75
2023-11-23T17:09:14.999Z,5.55
2023-11-23T17:11:54.081Z,5.70
2023-11-23T17:15:31.692Z,5.63
2023-11-23T17:19:00.186Z,5.40
2023-11-23T17:22:04.300Z,5.07
2023-11-23T17:25:16.584Z,4.80
2023-11-23T17:28:24.289Z,5.43
2023-11-23T17:31:03.741Z,7.43
2023-11-23T17:33:31.624Z,5.35
2023-11-23T17:35:58.436Z,5.00
2023-11-23T17:38:25.452Z,4.60
2023-11-23T17:40:52.070Z,4.85
2023-11-23T17:43:19.321Z,4.80
2023-11-23T17:45:48.448Z,4.60
2023-11-23T17:48:15.331Z,5.40
2023-11-23T17:50:41.931Z,5.20
2023-11-23T17:53:10.851Z,4.50
2023-11-23T17:55:37.414Z,5.05
2023-11-23T17:58:04.149Z,5.15
2023-11-23T18:00:31.618Z,4.10
2023-11-23T18:02:58.843Z,4.20
2023-11-23T18:05:44.834Z,3.90
2023-11-23T18:08:31.785Z,4.00
2023-11-23T18:11:18.938Z,4.32
2023-11-23T18:14:06.338Z,3.88
2023-11-23T18:16:53.429Z,4.60
2023-11-23T18:19:40.397Z,4.20
2023-11-23T18:22:27.355Z,4.25
2023-11-23T18:25:14.574Z,3.92
2023-11-23T18:28:01.521Z,4.53
2023-11-23T18:30:51.761Z,4.25
2023-11-23T18:33:38.757Z,4.15
2023-11-23T18:36:25.726Z,4.65
2023-11-23T18:39:14.968Z,3.47
2023-11-23T18:42:02.421Z,4.50
2023-11-23T18:44:49.453Z,3.67
2023-11-23T18:47:36.758Z,3.80
2023-11-23T18:50:24.451Z,4.13
2023-11-23T18:53:11.373Z,4.75
2023-11-23T18:55:58.344Z,3.08
2023-11-23T18:58:45.795Z,2.88
2023-11-23T19:01:33.425Z,3.13
2023-11-23T19:04:20.550Z,3.28
2023-11-23T19:07:07.622Z,3.42
2023-11-23T19:09:54.568Z,3.50
2023-11-23T19:12:51.587Z,3.97
2023-11-23T19:15:41.581Z,3.75
2023-11-23T19:18:28.778Z,4.55
2023-11-23T19:21:16.905Z,3.85
2023-11-23T19:24:04.292Z,4.78
2023-11-23T19:26:51.545Z,4.35
2023-11-23T19:29:45.880Z,3.90
2023-11-23T19:32:35.690Z,4.72
2023-11-23T19:35:23.171Z,4.32
2023-11-23T19:38:10.473Z,3.22
2023-11-23T19:41:02.418Z,3.88
2023-11-23T19:43:50.014Z,3.78
2023-11-23T19:46:37.458Z,3.03
2023-11-23T19:49:25.234Z,3.90
2023-11-23T19:52:26.141Z,3.92
2023-11-23T19:55:14.212Z,3.28
2023-11-23T19:58:01.483Z,3.90
2023-11-23T20:00:48.492Z,3.30
2023-11-23T20:03:35.515Z,3.20
2023-11-23T20:06:22.876Z,2.70
2023-11-23T20:09:11.065Z,2.90
2023-11-23T20:11:58.346Z,3.05
2023-11-23T20:14:45.299Z,2.90
2023-11-23T20:17:32.200Z,3.08
2023-11-23T20:20:19.184Z,2.95
2023-11-23T20:23:06.228Z,3.00
2023-11-23T20:25:53.168Z,2.80
2023-11-23T20:28:40.964Z,2.60
2023-11-23T20:31:29.451Z,3.00
2023-11-23T20:34:16.493Z,3.00
2023-11-23T20:37:04.119Z,3.50
2023-11-23T20:39:51.436Z,2.90
2023-11-23T20:42:40.143Z,3.08
2023-11-23T20:45:27.113Z,3.00
